createdAt,value
2023-03-17T00:01:57.328Z,87.48
2023-03-17T00:04:27.454Z,87.08
2023-03-17T00:06:56.624Z,86.84
2023-03-17T00:09:24.846Z,86.19
2023-03-17T00:11:54.499Z,85.44
2023-03-17T00:14:24.473Z,85.75
2023-03-17T00:16:53.618Z,85.39
2023-03-17T00:19:27.533Z,86.99
2023-03-17T00:21:56.020Z,85.64
2023-03-17T00:24:23.587Z,86.17
2023-03-17T00:26:51.205Z,85.68
2023-03-17T00:29:20.426Z,87.04
2023-03-17T00:31:48.042Z,87.22
2023-03-17T00:34:18.235Z,86.10
2023-03-17T00:36:49.860Z,86.82
2023-03-17T00:39:18.447Z,86.82
2023-03-17T00:44:13.194Z,87.71
2023-03-17T00:46:42.533Z,85.69
2023-03-17T00:51:44.582Z,85.54
2023-03-17T00:54:12.739Z,85.71
2023-03-17T00:56:41.549Z,84.84
2023-03-17T00:59:20.424Z,85.76
2023-03-17T01:01:50.035Z,85.91
2023-03-17T01:04:18.132Z,85.23
2023-03-17T01:06:47.838Z,85.51
2023-03-17T01:09:16.490Z,85.16
2023-03-17T01:11:44.224Z,85.21
2023-03-17T01:14:13.349Z,84.18
2023-03-17T01:16:41.109Z,85.23
2023-03-17T01:19:10.788Z,84.93
2023-03-17T01:21:38.562Z,85.87
2023-03-17T01:24:08.173Z,85.98
2023-03-17T01:26:35.949Z,84.99
2023-03-17T01:29:04.672Z,85.87
2023-03-17T01:31:32.379Z,85.71
2023-03-17T01:34:00.002Z,85.64
2023-03-17T01:36:28.955Z,86.62
2023-03-17T01:38:57.157Z,86.51
2023-03-17T01:41:24.917Z,87.08
2023-03-17T01:43:52.497Z,86.07
2023-03-17T01:46:29.152Z,85.68
2023-03-17T01:49:17.550Z,86.06
2023-03-17T01:51:54.451Z,86.16
2023-03-17T01:54:28.105Z,85.96
2023-03-17T01:56:58.459Z,86.10
2023-03-17T01:59:32.483Z,86.56
2023-03-17T02:02:05.916Z,86.65
2023-03-17T02:04:34.883Z,86.88
2023-03-17T02:07:05.074Z,86.67
2023-03-17T02:09:34.006Z,87.21
2023-03-17T02:12:03.742Z,87.10
2023-03-17T02:14:31.700Z,86.12
2023-03-17T02:16:59.307Z,86.22
2023-03-17T02:19:27.011Z,85.25
2023-03-17T02:21:57.941Z,86.24
2023-03-17T02:24:32.938Z,85.59
2023-03-17T02:27:06.494Z,86.08
2023-03-17T02:29:35.899Z,85.60
2023-03-17T02:32:04.363Z,86.92
2023-03-17T02:34:32.731Z,86.53
2023-03-17T02:37:01.705Z,86.44
2023-03-17T02:39:31.849Z,85.79
2023-03-17T02:41:59.828Z,85.65
2023-03-17T02:44:27.648Z,86.15
2023-03-17T02:46:55.284Z,86.92
2023-03-17T02:49:23.883Z,86.15
2023-03-17T02:51:51.955Z,86.66
2023-03-17T02:54:21.294Z,86.55
2023-03-17T02:56:48.888Z,86.97
2023-03-17T02:59:16.905Z,85.82
2023-03-17T03:01:44.638Z,86.32
2023-03-17T03:04:13.352Z,85.76
2023-03-17T03:06:42.501Z,85.92
2023-03-17T03:09:11.598Z,85.62
2023-03-17T03:11:41.375Z,86.96
2023-03-17T03:14:09.436Z,86.07
2023-03-17T03:16:37.244Z,86.97
2023-03-17T03:19:04.899Z,87.46
2023-03-17T03:21:32.621Z,87.22
2023-03-17T03:24:00.259Z,88.66
2023-03-17T03:26:28.361Z,88.13
2023-03-17T03:28:58.417Z,88.00
2023-03-17T03:31:26.195Z,87.71
2023-03-17T03:33:55.897Z,88.03
2023-03-17T03:36:23.763Z,87.78
2023-03-17T03:38:51.592Z,87.87
2023-03-17T03:41:19.144Z,88.13
2023-03-17T03:43:46.655Z,87.01
2023-03-17T03:46:15.777Z,87.88
2023-03-17T03:48:43.402Z,88.26
2023-03-17T03:51:11.109Z,88.43
2023-03-17T03:53:38.704Z,89.39
2023-03-17T03:56:07.333Z,89.05
2023-03-17T03:58:34.943Z,89.52
2023-03-17T04:01:05.351Z,89.35
2023-03-17T04:03:34.589Z,90.06
2023-03-17T04:06:03.515Z,89.88
2023-03-17T04:08:32.533Z,91.05
2023-03-17T04:11:00.294Z,90.46
2023-03-17T04:13:28.014Z,90.90
2023-03-17T04:15:55.651Z,91.01
2023-03-17T04:18:23.689Z,90.82
2023-03-17T04:20:52.580Z,91.04
2023-03-17T04:23:20.235Z,91.16
2023-03-17T04:25:47.928Z,91.20
2023-03-17T04:28:15.479Z,91.88
2023-03-17T04:30:42.963Z,91.69
2023-03-17T04:33:13.716Z,91.71
2023-03-17T04:35:41.440Z,92.06
2023-03-17T04:38:13.263Z,91.33
2023-03-17T04:40:40.867Z,91.35
2023-03-17T04:43:10.146Z,92.24
2023-03-17T04:45:38.278Z,92.45
2023-03-17T04:48:06.761Z,92.45
2023-03-17T04:50:34.675Z,92.74
2023-03-17T04:53:02.376Z,92.58
2023-03-17T04:55:31.546Z,92.12
2023-03-17T04:57:59.234Z,92.27
2023-03-17T05:00:26.830Z,92.78
2023-03-17T05:02:54.404Z,93.00
2023-03-17T05:05:21.954Z,92.76
2023-03-17T05:07:49.481Z,92.04
2023-03-17T05:10:17.203Z,92.22
2023-03-17T05:12:46.211Z,92.89
2023-03-17T05:15:14.248Z,92.66
2023-03-17T05:17:41.777Z,92.81
2023-03-17T05:20:10.667Z,92.95
2023-03-17T05:22:38.465Z,92.95
2023-03-17T05:25:06.692Z,93.00
2023-03-17T05:27:34.264Z,92.45
2023-03-17T05:30:03.646Z,92.85
2023-03-17T05:32:32.018Z,93.04
2023-03-17T05:34:59.823Z,93.30
2023-03-17T05:37:27.390Z,92.80
2023-03-17T05:39:54.941Z,93.06
2023-03-17T05:42:22.464Z,93.18
2023-03-17T05:44:50.029Z,93.41
2023-03-17T05:47:18.944Z,93.22
2023-03-17T05:49:46.773Z,93.56
2023-03-17T05:52:14.314Z,93.65
2023-03-17T05:54:42.004Z,93.64
2023-03-17T05:57:12.113Z,93.35
2023-03-17T05:59:39.643Z,94.00
2023-03-17T06:02:07.338Z,95.78
2023-03-17T06:04:36.331Z,94.51
2023-03-17T06:07:04.847Z,92.21
2023-03-17T06:09:33.091Z,92.71
2023-03-17T06:12:00.769Z,92.79
2023-03-17T06:14:28.410Z,94.38
2023-03-17T06:16:56.076Z,91.21
2023-03-17T06:19:23.890Z,91.24
2023-03-17T06:21:52.879Z,91.48
2023-03-17T06:24:20.473Z,90.04
2023-03-17T06:26:48.030Z,89.50
2023-03-17T06:29:15.623Z,91.55
2023-03-17T06:31:50.061Z,90.92
2023-03-17T06:34:17.864Z,91.33
2023-03-17T06:36:46.226Z,90.84
2023-03-17T06:39:15.776Z,90.64
2023-03-17T06:41:43.436Z,89.62
2023-03-17T06:44:11.484Z,89.02
2023-03-17T06:46:39.119Z,88.88
2023-03-17T06:49:07.935Z,87.63
2023-03-17T06:51:37.177Z,87.37
2023-03-17T06:54:04.819Z,87.17
2023-03-17T06:56:34.039Z,85.55
2023-03-17T06:59:01.638Z,85.18
2023-03-17T07:01:29.242Z,84.60
2023-03-17T07:03:56.868Z,84.27
2023-03-17T07:06:24.460Z,84.76
2023-03-17T07:08:52.330Z,84.54
2023-03-17T07:11:20.276Z,83.34
2023-03-17T07:13:49.427Z,83.83
2023-03-17T07:16:19.424Z,84.28
2023-03-17T07:18:46.985Z,83.31
2023-03-17T07:21:15.579Z,82.75
2023-03-17T07:23:43.430Z,82.27
2023-03-17T07:26:11.070Z,82.20
2023-03-17T07:28:38.704Z,83.06
2023-03-17T07:31:09.520Z,85.99
2023-03-17T07:33:37.246Z,81.76
2023-03-17T07:36:07.200Z,81.12
2023-03-17T07:38:34.937Z,80.33
2023-03-17T07:41:03.621Z,80.86
2023-03-17T07:43:31.799Z,80.39
2023-03-17T07:45:59.408Z,78.99
2023-03-17T07:48:28.591Z,78.85
2023-03-17T07:50:56.373Z,78.33
2023-03-17T07:53:23.920Z,78.24
2023-03-17T07:55:51.537Z,78.42
2023-03-17T07:58:20.947Z,77.51
2023-03-17T08:00:48.882Z,76.42
2023-03-17T08:03:16.794Z,75.91
2023-03-17T08:05:47.052Z,76.96
2023-03-17T08:08:15.430Z,76.15
2023-03-17T08:10:43.002Z,75.06
2023-03-17T08:13:10.641Z,74.53
2023-03-17T08:15:38.444Z,73.50
2023-03-17T08:18:06.832Z,73.45
2023-03-17T08:20:34.923Z,72.31
2023-03-17T08:23:04.223Z,71.76
2023-03-17T08:25:32.086Z,71.66
2023-03-17T08:27:59.703Z,69.82
2023-03-17T08:30:27.423Z,68.49
2023-03-17T08:32:55.277Z,68.54
2023-03-17T08:35:23.840Z,70.19
2023-03-17T08:37:51.540Z,67.18
2023-03-17T08:40:22.274Z,66.58
2023-03-17T08:42:50.587Z,64.46
2023-03-17T08:45:19.343Z,64.18
2023-03-17T08:47:47.578Z,65.37
2023-03-17T08:50:19.698Z,65.00
2023-03-17T08:52:48.562Z,61.63
2023-03-17T08:55:16.948Z,61.67
2023-03-17T08:57:47.118Z,60.81
2023-03-17T09:00:20.281Z,59.28
2023-03-17T09:02:49.144Z,56.16
2023-03-17T09:05:17.914Z,54.09
2023-03-17T09:07:45.881Z,53.41
2023-03-17T09:10:14.756Z,54.89
2023-03-17T09:16:57.014Z,51.04
2023-03-17T09:19:24.770Z,50.26
2023-03-17T09:21:52.641Z,50.06
2023-03-17T09:24:21.816Z,49.58
2023-03-17T09:26:49.400Z,49.33
2023-03-17T09:29:17.021Z,48.65
2023-03-17T09:31:44.586Z,48.37
2023-03-17T09:34:13.568Z,47.05
2023-03-17T09:36:41.278Z,46.32
2023-03-17T09:39:09.727Z,46.25
2023-03-17T09:41:56.940Z,46.69
2023-03-17T09:44:41.126Z,46.91
2023-03-17T09:47:23.000Z,47.19
2023-03-17T09:49:54.355Z,45.20
2023-03-17T09:52:28.233Z,47.13
2023-03-17T09:54:56.906Z,45.01
2023-03-17T09:57:30.427Z,45.67
2023-03-17T10:00:06.272Z,46.29
2023-03-17T10:02:38.038Z,45.13
2023-03-17T10:05:19.462Z,44.40
2023-03-17T10:07:55.793Z,43.53
2023-03-17T10:10:30.938Z,43.83
2023-03-17T10:13:10.435Z,41.81
2023-03-17T10:15:45.458Z,41.85
2023-03-17T10:18:15.087Z,43.76
2023-03-17T10:20:51.636Z,42.72
2023-03-17T10:23:25.185Z,41.23
2023-03-17T10:25:53.628Z,43.22
2023-03-17T10:28:27.528Z,41.82
2023-03-17T10:30:55.574Z,41.13
2023-03-17T10:33:23.175Z,40.66
2023-03-17T10:35:52.232Z,42.29
2023-03-17T10:38:22.457Z,41.86
2023-03-17T10:40:58.053Z,42.03
2023-03-17T10:43:30.487Z,41.29
2023-03-17T10:46:02.935Z,40.19
2023-03-17T10:48:32.051Z,39.57
2023-03-17T10:51:00.931Z,38.98
2023-03-17T10:53:29.136Z,39.86
2023-03-17T10:55:59.580Z,38.69
2023-03-17T10:58:38.683Z,38.73
2023-03-17T11:01:09.043Z,38.29
2023-03-17T11:03:41.022Z,38.98
2023-03-17T11:06:11.851Z,38.57
2023-03-17T11:08:42.468Z,38.93
2023-03-17T11:11:22.822Z,39.46
2023-03-17T11:13:50.442Z,39.20
2023-03-17T11:16:23.029Z,38.13
2023-03-17T11:18:55.828Z,40.46
2023-03-17T11:21:29.988Z,39.38
2023-03-17T11:24:04.483Z,38.20
2023-03-17T11:26:47.104Z,39.49
2023-03-17T11:29:23.859Z,41.51
2023-03-17T11:31:59.809Z,40.91
2023-03-17T11:34:39.826Z,37.58
2023-03-17T11:37:20.121Z,37.93
2023-03-17T11:39:55.327Z,36.12
2023-03-17T11:42:28.207Z,36.62
2023-03-17T11:45:09.895Z,36.06
2023-03-17T11:47:55.393Z,37.42
2023-03-17T11:50:30.810Z,36.74
2023-03-17T11:53:11.979Z,36.15
2023-03-17T11:55:46.088Z,37.17
2023-03-17T11:58:23.686Z,37.49
2023-03-17T12:00:56.989Z,37.77
2023-03-17T12:03:29.893Z,37.65
2023-03-17T12:06:01.612Z,35.45
2023-03-17T12:08:38.627Z,35.35
2023-03-17T12:11:10.461Z,35.64
2023-03-17T12:13:42.995Z,36.21
2023-03-17T12:16:16.145Z,36.11
2023-03-17T12:18:55.149Z,35.69
2023-03-17T12:21:30.872Z,35.99
2023-03-17T12:24:04.534Z,35.85
2023-03-17T12:26:38.486Z,35.92
2023-03-17T12:29:12.890Z,36.46
2023-03-17T12:31:45.205Z,35.33
2023-03-17T12:34:21.342Z,35.73
2023-03-17T12:36:49.885Z,35.81
2023-03-17T12:39:22.457Z,35.68
2023-03-17T12:42:05.721Z,36.05
2023-03-17T12:44:51.149Z,35.43
2023-03-17T12:47:48.634Z,35.15
2023-03-17T12:50:33.628Z,33.98
2023-03-17T12:53:26.506Z,34.77
2023-03-17T12:55:59.318Z,34.75
2023-03-17T12:58:32.236Z,34.58
2023-03-17T13:01:08.800Z,33.37
2023-03-17T13:03:38.617Z,32.15
2023-03-17T13:06:16.583Z,31.94
2023-03-17T13:08:44.167Z,31.58
2023-03-17T13:11:19.576Z,32.07
2023-03-17T13:13:59.392Z,32.07
2023-03-17T13:16:29.771Z,32.82
2023-03-17T13:19:20.049Z,32.62
2023-03-17T13:21:53.664Z,33.74
2023-03-17T13:24:42.399Z,33.37
2023-03-17T13:27:15.650Z,33.19
2023-03-17T13:29:48.592Z,33.71
2023-03-17T13:32:38.214Z,33.28
2023-03-17T13:35:26.401Z,32.89
2023-03-17T13:38:26.936Z,33.53
2023-03-17T13:41:11.249Z,33.86
2023-03-17T13:43:52.070Z,32.46
2023-03-17T13:46:28.851Z,31.50
2023-03-17T13:48:57.373Z,30.50
2023-03-17T13:51:28.074Z,30.04
2023-03-17T13:53:58.971Z,29.63
2023-03-17T13:56:30.378Z,31.12
2023-03-17T13:59:14.159Z,31.37
2023-03-17T14:01:46.935Z,31.96
2023-03-17T14:04:21.382Z,31.42
2023-03-17T14:06:53.443Z,31.48
2023-03-17T14:09:39.780Z,32.27
2023-03-17T14:12:14.470Z,31.42
2023-03-17T14:14:50.545Z,31.58
2023-03-17T14:17:23.474Z,32.34
2023-03-17T14:20:01.670Z,32.70
2023-03-17T14:22:29.230Z,32.34
2023-03-17T14:25:01.449Z,30.80
2023-03-17T14:27:33.871Z,30.99
2023-03-17T14:30:09.904Z,32.57
2023-03-17T14:32:37.692Z,32.29
2023-03-17T14:35:06.957Z,32.46
2023-03-17T14:37:34.617Z,33.39
2023-03-17T14:40:02.175Z,33.91
2023-03-17T14:42:31.299Z,34.37
2023-03-17T14:45:03.791Z,34.05
2023-03-17T14:47:38.152Z,35.05
2023-03-17T14:50:14.338Z,35.03
2023-03-17T14:52:42.058Z,35.66
2023-03-17T14:55:14.814Z,36.55
2023-03-17T14:57:42.611Z,37.40
2023-03-17T15:00:34.786Z,37.52
2023-03-17T15:03:17.134Z,37.03
2023-03-17T15:05:45.334Z,38.37
2023-03-17T15:08:40.946Z,38.81
2023-03-17T15:11:09.762Z,38.88
2023-03-17T15:13:39.150Z,39.75
2023-03-17T15:16:07.902Z,40.46
2023-03-17T15:18:38.260Z,41.62
2023-03-17T15:21:06.172Z,40.66
2023-03-17T15:23:41.380Z,41.42
2023-03-17T15:26:23.653Z,42.12
2023-03-17T15:28:51.585Z,42.11
2023-03-17T15:31:23.352Z,43.08
2023-03-17T15:33:52.340Z,43.57
2023-03-17T15:36:31.800Z,43.18
2023-03-17T15:39:00.510Z,43.55
2023-03-17T15:41:28.144Z,43.57
2023-03-17T15:43:56.695Z,42.99
2023-03-17T15:46:27.246Z,43.16
2023-03-17T15:48:56.394Z,43.58
2023-03-17T15:51:23.985Z,43.59
2023-03-17T15:53:51.634Z,43.85
2023-03-17T15:56:21.712Z,43.74
2023-03-17T15:58:52.087Z,44.25
2023-03-17T16:01:20.716Z,45.13
2023-03-17T16:03:49.138Z,46.43
2023-03-17T16:06:19.665Z,47.04
2023-03-17T16:08:47.377Z,47.22
2023-03-17T16:11:16.606Z,46.86
2023-03-17T16:13:44.179Z,46.54
2023-03-17T16:16:21.279Z,47.09
2023-03-17T16:18:50.910Z,47.20
2023-03-17T16:21:20.212Z,46.99
2023-03-17T16:23:48.979Z,48.09
2023-03-17T16:26:17.202Z,49.74
2023-03-17T16:28:46.089Z,48.42
2023-03-17T16:31:23.437Z,48.35
2023-03-17T16:33:52.575Z,47.90
2023-03-17T16:36:22.913Z,47.78
2023-03-17T16:38:51.470Z,48.11
2023-03-17T16:41:22.098Z,49.36
2023-03-17T16:43:52.159Z,49.99
2023-03-17T16:46:22.012Z,50.10
2023-03-17T16:48:50.635Z,50.45
2023-03-17T16:51:18.928Z,50.52
2023-03-17T16:53:47.952Z,50.84
2023-03-17T16:56:18.725Z,51.31
2023-03-17T16:58:47.473Z,52.16
2023-03-17T17:01:17.879Z,53.41
2023-03-17T17:03:46.018Z,54.24
2023-03-17T17:06:15.311Z,53.88
2023-03-17T17:08:44.419Z,53.46
2023-03-17T17:11:14.498Z,53.29
2023-03-17T17:13:42.651Z,54.29
2023-03-17T17:16:19.758Z,55.61
2023-03-17T17:18:47.514Z,56.70
2023-03-17T17:21:15.149Z,56.79
2023-03-17T17:23:42.847Z,56.62
2023-03-17T17:26:10.433Z,57.44
2023-03-17T17:28:40.315Z,58.73
2023-03-17T17:31:08.884Z,59.23
2023-03-17T17:33:37.441Z,60.36
2023-03-17T17:36:06.893Z,61.24
2023-03-17T17:38:34.608Z,61.37
2023-03-17T17:41:05.556Z,62.56
2023-03-17T17:43:33.558Z,63.42
2023-03-17T17:46:02.689Z,62.56
2023-03-17T17:48:30.736Z,62.46
2023-03-17T17:50:58.530Z,63.18
2023-03-17T17:53:26.206Z,63.62
2023-03-17T17:55:53.819Z,63.27
2023-03-17T17:58:23.979Z,63.56
2023-03-17T18:00:53.809Z,64.22
2023-03-17T18:03:25.123Z,64.78
2023-03-17T18:05:53.202Z,65.43
2023-03-17T18:08:21.487Z,65.40
2023-03-17T18:10:51.502Z,65.42
2023-03-17T18:13:19.741Z,66.44
2023-03-17T18:15:47.312Z,66.65
2023-03-17T18:18:15.248Z,66.67
2023-03-17T18:20:44.292Z,67.52
2023-03-17T18:23:12.172Z,67.96
2023-03-17T18:25:39.814Z,68.33
2023-03-17T18:28:07.971Z,68.30
2023-03-17T18:30:36.223Z,68.79
2023-03-17T18:33:08.283Z,69.21
2023-03-17T18:35:36.512Z,69.50
2023-03-17T18:38:05.585Z,70.26
2023-03-17T18:40:33.810Z,70.54
2023-03-17T18:43:02.403Z,70.69
2023-03-17T18:45:30.078Z,71.04
2023-03-17T18:47:57.646Z,70.47
2023-03-17T18:50:25.331Z,71.12
2023-03-17T18:52:53.259Z,70.33
2023-03-17T18:55:22.292Z,70.45
2023-03-17T18:57:49.843Z,70.10
2023-03-17T19:00:18.489Z,70.72
2023-03-17T19:02:46.769Z,72.00
2023-03-17T19:05:15.201Z,72.50
2023-03-17T19:07:42.903Z,72.64
2023-03-17T19:10:11.974Z,72.76
2023-03-17T19:12:42.362Z,72.30
2023-03-17T19:15:12.365Z,73.04
2023-03-17T19:17:40.073Z,73.06
2023-03-17T19:20:09.941Z,72.50
2023-03-17T19:22:37.617Z,72.10
2023-03-17T19:25:06.282Z,72.59
2023-03-17T19:27:33.995Z,73.41
2023-03-17T19:30:02.910Z,73.81
2023-03-17T19:32:30.598Z,74.44
2023-03-17T19:34:58.189Z,74.00
2023-03-17T19:37:25.924Z,74.04
2023-03-17T19:39:53.472Z,74.62
2023-03-17T19:42:21.130Z,74.16
2023-03-17T19:44:48.756Z,74.70
2023-03-17T19:47:17.744Z,74.27
2023-03-17T19:49:45.845Z,74.04
2023-03-17T19:52:13.420Z,75.10
2023-03-17T19:54:44.630Z,75.64
2023-03-17T19:57:13.062Z,75.09
2023-03-17T19:59:40.805Z,75.40
2023-03-17T20:02:08.832Z,75.34
2023-03-17T20:04:37.736Z,75.50
2023-03-17T20:07:05.702Z,75.90
2023-03-17T20:09:33.308Z,75.95
2023-03-17T20:12:01.914Z,75.86
2023-03-17T20:14:29.564Z,76.29
2023-03-17T20:16:57.179Z,76.45
2023-03-17T20:19:24.751Z,77.33
2023-03-17T20:21:53.821Z,77.49
2023-03-17T20:24:21.641Z,77.17
2023-03-17T20:26:49.731Z,77.78
2023-03-17T20:29:17.611Z,78.27
2023-03-17T20:31:45.190Z,78.88
2023-03-17T20:34:12.750Z,78.86
2023-03-17T20:36:42.357Z,79.25
2023-03-17T20:39:14.867Z,79.17
2023-03-17T20:41:42.598Z,78.94
2023-03-17T20:44:10.571Z,79.48
2023-03-17T20:46:38.791Z,79.48
2023-03-17T20:49:07.337Z,80.05
2023-03-17T20:51:35.022Z,80.21
2023-03-17T20:54:03.297Z,80.26
2023-03-17T20:56:33.789Z,80.50
2023-03-17T20:59:04.872Z,80.97
2023-03-17T21:01:35.521Z,80.97
2023-03-17T21:04:05.690Z,80.92
2023-03-17T21:06:34.280Z,81.27
2023-03-17T21:09:02.440Z,81.82
2023-03-17T21:11:30.538Z,81.92
2023-03-17T21:13:59.595Z,81.88
2023-03-17T21:16:29.685Z,81.86
2023-03-17T21:18:57.764Z,82.55
2023-03-17T21:21:25.722Z,82.80
2023-03-17T21:23:53.406Z,82.84
2023-03-17T21:26:21.220Z,83.21
2023-03-17T21:28:49.285Z,83.33
2023-03-17T21:31:18.255Z,83.25
2023-03-17T21:33:48.486Z,82.87
2023-03-17T21:36:16.168Z,83.28
2023-03-17T21:38:43.803Z,83.77
2023-03-17T21:41:30.225Z,83.28
2023-03-17T21:43:58.059Z,83.37
2023-03-17T21:46:27.338Z,83.86
2023-03-17T21:48:55.844Z,83.02
2023-03-17T21:51:23.528Z,82.89
2023-03-17T21:53:51.341Z,82.95
2023-03-17T21:56:20.426Z,83.35
2023-03-17T21:58:48.855Z,83.64
2023-03-17T22:01:17.285Z,83.57
2023-03-17T22:03:46.379Z,83.67
2023-03-17T22:06:15.391Z,84.24
2023-03-17T22:08:43.006Z,83.95
2023-03-17T22:11:13.502Z,83.59
2023-03-17T22:13:41.724Z,84.14
2023-03-17T22:16:12.266Z,83.88
2023-03-17T22:18:40.459Z,84.04
2023-03-17T22:21:10.046Z,84.46
2023-03-17T22:23:41.372Z,84.43
2023-03-17T22:26:12.285Z,83.86
2023-03-17T22:28:40.665Z,83.37
2023-03-17T22:31:12.565Z,83.87
2023-03-17T22:33:42.746Z,83.94
2023-03-17T22:36:12.535Z,83.63
2023-03-17T22:38:40.272Z,83.65
2023-03-17T22:41:10.286Z,83.23
2023-03-17T22:43:38.465Z,83.86
2023-03-17T22:46:07.371Z,84.04
2023-03-17T22:48:35.853Z,84.31
2023-03-17T22:51:03.565Z,85.12
2023-03-17T22:53:32.846Z,84.64
2023-03-17T22:56:01.329Z,84.48
2023-03-17T22:58:29.497Z,84.38
2023-03-17T23:00:57.921Z,84.09
2023-03-17T23:03:26.907Z,83.55
2023-03-17T23:05:58.169Z,83.80
2023-03-17T23:08:29.220Z,84.36
2023-03-17T23:11:00.996Z,84.49
2023-03-17T23:13:30.304Z,84.43
2023-03-17T23:15:58.281Z,84.12
2023-03-17T23:18:26.076Z,84.12
2023-03-17T23:20:54.303Z,83.92
2023-03-17T23:23:21.911Z,84.01
2023-03-17T23:25:49.449Z,84.30
2023-03-17T23:28:19.114Z,84.16
2023-03-17T23:30:47.271Z,84.48
2023-03-17T23:33:17.249Z,84.94
2023-03-17T23:35:45.978Z,84.71
2023-03-17T23:38:13.594Z,85.40
2023-03-17T23:40:41.144Z,85.20
2023-03-17T23:43:08.785Z,85.12
2023-03-17T23:45:37.768Z,86.14
2023-03-17T23:48:05.340Z,86.11
2023-03-17T23:50:33.649Z,86.70
2023-03-17T23:53:01.720Z,86.69
2023-03-17T23:55:29.666Z,86.94
2023-03-17T23:57:57.187Z,87.20
